sensor_id;sensor_type;location;lat;lon;timestamp;pressure;altitude;pressure_sealevel;temperature;humidity
82746;BME280;72484;50.004;14.356;2023-12-20T00:00:30;97650.21;;;6.98;57.87
82746;BME280;72484;50.004;14.356;2023-12-20T00:04:28;97632.92;;;6.98;58.40
82746;BME280;72484;50.004;14.356;2023-12-20T00:08:25;97632.30;;;6.99;58.67
82746;BME280;72484;50.004;14.356;2023-12-20T00:12:24;97636.25;;;6.97;59.38
82746;BME280;72484;50.004;14.356;2023-12-20T00:16:27;97646.79;;;6.92;59.66
82746;BME280;72484;50.004;14.356;2023-12-20T00:20:25;97633.61;;;6.87;60.05
82746;BME280;72484;50.004;14.356;2023-12-20T00:24:23;97615.98;;;6.84;60.73
82746;BME280;72484;50.004;14.356;2023-12-20T00:28:20;97622.64;;;6.79;61.09
82746;BME280;72484;50.004;14.356;2023-12-20T00:32:18;97626.05;;;6.76;62.04
82746;BME280;72484;50.004;14.356;2023-12-20T00:36:15;97637.55;;;6.77;62.34
82746;BME280;72484;50.004;14.356;2023-12-20T00:40:13;97628.42;;;6.76;62.86
82746;BME280;72484;50.004;14.356;2023-12-20T00:44:11;97620.97;;;6.79;63.26
82746;BME280;72484;50.004;14.356;2023-12-20T00:48:09;97617.55;;;6.76;63.77
82746;BME280;72484;50.004;14.356;2023-12-20T00:52:09;97609.22;;;6.75;64.05
82746;BME280;72484;50.004;14.356;2023-12-20T00:56:07;97602.73;;;6.78;64.44
82746;BME280;72484;50.004;14.356;2023-12-20T01:00:07;97584.17;;;6.76;65.01
82746;BME280;72484;50.004;14.356;2023-12-20T01:04:06;97577.27;;;6.75;65.64
82746;BME280;72484;50.004;14.356;2023-12-20T01:08:04;97578.07;;;6.76;65.95
82746;BME280;72484;50.004;14.356;2023-12-20T01:12:02;97584.41;;;6.75;66.42
82746;BME280;72484;50.004;14.356;2023-12-20T01:16:00;97573.86;;;6.73;67.01
82746;BME280;72484;50.004;14.356;2023-12-20T01:19:58;97572.02;;;6.68;67.41
82746;BME280;72484;50.004;14.356;2023-12-20T01:23:55;97563.45;;;6.66;67.75
82746;BME280;72484;50.004;14.356;2023-12-20T01:27:52;97568.94;;;6.72;67.66
82746;BME280;72484;50.004;14.356;2023-12-20T01:31:50;97559.50;;;6.70;68.15
82746;BME280;72484;50.004;14.356;2023-12-20T01:35:47;97547.89;;;6.62;68.37
82746;BME280;72484;50.004;14.356;2023-12-20T01:39:45;97536.49;;;6.66;68.54
82746;BME280;72484;50.004;14.356;2023-12-20T01:43:42;97526.98;;;6.60;68.91
82746;BME280;72484;50.004;14.356;2023-12-20T01:47:40;97525.13;;;6.59;68.99
82746;BME280;72484;50.004;14.356;2023-12-20T01:51:38;97521.89;;;6.58;69.68
82746;BME280;72484;50.004;14.356;2023-12-20T01:55:38;97506.27;;;6.61;69.60
82746;BME280;72484;50.004;14.356;2023-12-20T01:59:37;97506.44;;;6.60;69.86
82746;BME280;72484;50.004;14.356;2023-12-20T02:03:37;97501.52;;;6.53;70.27
82746;BME280;72484;50.004;14.356;2023-12-20T02:07:34;97500.70;;;6.49;70.80
82746;BME280;72484;50.004;14.356;2023-12-20T02:11:32;97494.13;;;6.47;70.58
82746;BME280;72484;50.004;14.356;2023-12-20T02:15:31;97489.77;;;6.46;71.09
82746;BME280;72484;50.004;14.356;2023-12-20T02:19:29;97494.02;;;6.42;71.28
82746;BME280;72484;50.004;14.356;2023-12-20T02:23:28;97501.30;;;6.33;71.56
82746;BME280;72484;50.004;14.356;2023-12-20T02:27:25;97498.05;;;6.30;71.86
82746;BME280;72484;50.004;14.356;2023-12-20T02:31:24;97491.21;;;6.25;72.13
82746;BME280;72484;50.004;14.356;2023-12-20T02:35:22;97491.67;;;6.24;72.33
82746;BME280;72484;50.004;14.356;2023-12-20T02:39:20;97488.42;;;6.21;72.47
82746;BME280;72484;50.004;14.356;2023-12-20T02:43:18;97491.35;;;6.20;72.48
82746;BME280;72484;50.004;14.356;2023-12-20T02:47:16;97487.09;;;6.24;72.51
82746;BME280;72484;50.004;14.356;2023-12-20T02:51:16;97486.30;;;6.24;72.64
82746;BME280;72484;50.004;14.356;2023-12-20T02:55:14;97486.05;;;6.23;72.95
82746;BME280;72484;50.004;14.356;2023-12-20T02:59:14;97485.66;;;6.23;73.41
82746;BME280;72484;50.004;14.356;2023-12-20T03:03:11;97489.45;;;6.17;73.51
82746;BME280;72484;50.004;14.356;2023-12-20T03:07:09;97483.02;;;6.16;73.59
82746;BME280;72484;50.004;14.356;2023-12-20T03:11:11;97484.92;;;6.16;73.87
82746;BME280;72484;50.004;14.356;2023-12-20T03:15:10;97488.63;;;6.10;74.05
82746;BME280;72484;50.004;14.356;2023-12-20T03:19:07;97480.85;;;6.10;74.17
82746;BME280;72484;50.004;14.356;2023-12-20T03:23:05;97486.33;;;6.12;74.16
82746;BME280;72484;50.004;14.356;2023-12-20T03:27:03;97485.55;;;6.13;74.14
82746;BME280;72484;50.004;14.356;2023-12-20T03:31:00;97485.45;;;6.11;74.30
82746;BME280;72484;50.004;14.356;2023-12-20T03:34:58;97480.94;;;6.11;74.32
82746;BME280;72484;50.004;14.356;2023-12-20T03:38:55;97484.05;;;6.13;74.21
82746;BME280;72484;50.004;14.356;2023-12-20T03:42:53;97480.65;;;6.17;74.19
82746;BME280;72484;50.004;14.356;2023-12-20T03:46:50;97481.85;;;6.20;74.11
82746;BME280;72484;50.004;14.356;2023-12-20T03:50:48;97475.42;;;6.19;74.09
82746;BME280;72484;50.004;14.356;2023-12-20T03:54:45;97473.89;;;6.12;74.23
82746;BME280;72484;50.004;14.356;2023-12-20T03:58:42;97475.08;;;6.09;74.21
82746;BME280;72484;50.004;14.356;2023-12-20T04:02:41;97477.67;;;6.09;74.23
82746;BME280;72484;50.004;14.356;2023-12-20T04:06:39;97475.48;;;6.10;74.35
82746;BME280;72484;50.004;14.356;2023-12-20T04:10:39;97480.86;;;6.09;74.48
82746;BME280;72484;50.004;14.356;2023-12-20T04:14:42;97487.27;;;6.10;74.55
82746;BME280;72484;50.004;14.356;2023-12-20T04:18:33;97487.83;;;6.10;74.51
82746;BME280;72484;50.004;14.356;2023-12-20T04:21:52;97486.55;;;6.07;74.58
82746;BME280;72484;50.004;14.356;2023-12-20T04:25:50;97479.64;;;6.02;74.64
82746;BME280;72484;50.004;14.356;2023-12-20T04:29:47;97482.96;;;6.00;74.44
82746;BME280;72484;50.004;14.356;2023-12-20T04:33:45;97489.55;;;6.02;74.52
82746;BME280;72484;50.004;14.356;2023-12-20T04:37:42;97489.48;;;6.05;74.31
82746;BME280;72484;50.004;14.356;2023-12-20T04:41:40;97487.71;;;5.99;74.48
82746;BME280;72484;50.004;14.356;2023-12-20T04:45:37;97489.58;;;5.94;74.55
82746;BME280;72484;50.004;14.356;2023-12-20T04:49:34;97489.00;;;5.89;74.56
82746;BME280;72484;50.004;14.356;2023-12-20T04:53:32;97487.83;;;5.93;74.55
82746;BME280;72484;50.004;14.356;2023-12-20T04:57:29;97491.02;;;5.91;74.58
82746;BME280;72484;50.004;14.356;2023-12-20T05:01:27;97490.50;;;5.87;74.79
82746;BME280;72484;50.004;14.356;2023-12-20T05:05:24;97490.23;;;5.82;74.85
82746;BME280;72484;50.004;14.356;2023-12-20T05:09:22;97487.23;;;5.82;74.94
82746;BME280;72484;50.004;14.356;2023-12-20T05:13:19;97486.26;;;5.78;74.98
82746;BME280;72484;50.004;14.356;2023-12-20T05:17:16;97492.08;;;5.74;74.96
82746;BME280;72484;50.004;14.356;2023-12-20T05:21:14;97490.66;;;5.76;75.11
82746;BME280;72484;50.004;14.356;2023-12-20T05:25:11;97492.09;;;5.74;74.90
82746;BME280;72484;50.004;14.356;2023-12-20T05:29:08;97496.42;;;5.71;75.16
82746;BME280;72484;50.004;14.356;2023-12-20T05:33:06;97502.36;;;5.69;75.15
82746;BME280;72484;50.004;14.356;2023-12-20T05:37:07;97502.91;;;5.70;75.18
82746;BME280;72484;50.004;14.356;2023-12-20T05:41:04;97510.73;;;5.67;75.22
82746;BME280;72484;50.004;14.356;2023-12-20T05:45:02;97504.92;;;5.63;75.15
82746;BME280;72484;50.004;14.356;2023-12-20T05:49:03;97504.14;;;5.63;75.19
82746;BME280;72484;50.004;14.356;2023-12-20T05:53:00;97503.73;;;5.60;75.25
82746;BME280;72484;50.004;14.356;2023-12-20T05:57:00;97503.50;;;5.49;75.45
82746;BME280;72484;50.004;14.356;2023-12-20T06:00:58;97509.10;;;5.46;75.43
82746;BME280;72484;50.004;14.356;2023-12-20T06:04:55;97512.54;;;5.52;75.53
82746;BME280;72484;50.004;14.356;2023-12-20T06:08:54;97511.60;;;5.55;75.54
82746;BME280;72484;50.004;14.356;2023-12-20T06:12:51;97507.84;;;5.59;75.26
82746;BME280;72484;50.004;14.356;2023-12-20T06:16:48;97509.08;;;5.57;75.32
82746;BME280;72484;50.004;14.356;2023-12-20T06:20:46;97513.11;;;5.55;75.27
82746;BME280;72484;50.004;14.356;2023-12-20T06:24:44;97520.28;;;5.51;75.43
82746;BME280;72484;50.004;14.356;2023-12-20T06:28:41;97518.21;;;5.48;75.49
82746;BME280;72484;50.004;14.356;2023-12-20T06:32:39;97517.86;;;5.42;75.50
82746;BME280;72484;50.004;14.356;2023-12-20T06:36:38;97515.00;;;5.42;75.67
82746;BME280;72484;50.004;14.356;2023-12-20T06:40:35;97525.17;;;5.37;75.63
82746;BME280;72484;50.004;14.356;2023-12-20T06:44:32;97538.34;;;5.30;75.78
82746;BME280;72484;50.004;14.356;2023-12-20T06:48:30;97542.92;;;5.27;76.03
82746;BME280;72484;50.004;14.356;2023-12-20T06:52:27;97548.27;;;5.24;76.21
82746;BME280;72484;50.004;14.356;2023-12-20T06:56:25;97557.35;;;5.23;76.31
82746;BME280;72484;50.004;14.356;2023-12-20T07:00:23;97561.01;;;5.25;76.27
82746;BME280;72484;50.004;14.356;2023-12-20T07:04:23;97565.73;;;5.29;76.16
82746;BME280;72484;50.004;14.356;2023-12-20T07:08:21;97575.02;;;5.28;76.25
82746;BME280;72484;50.004;14.356;2023-12-20T07:12:18;97577.24;;;5.27;76.23
82746;BME280;72484;50.004;14.356;2023-12-20T07:16:16;97579.27;;;5.32;75.99
82746;BME280;72484;50.004;14.356;2023-12-20T07:20:17;97585.73;;;5.30;75.93
82746;BME280;72484;50.004;14.356;2023-12-20T07:24:14;97597.77;;;5.31;76.08
82746;BME280;72484;50.004;14.356;2023-12-20T07:28:12;97597.52;;;5.31;75.95
82746;BME280;72484;50.004;14.356;2023-12-20T07:32:09;97607.38;;;5.36;75.74
82746;BME280;72484;50.004;14.356;2023-12-20T07:36:07;97597.81;;;5.36;75.90
82746;BME280;72484;50.004;14.356;2023-12-20T07:40:07;97610.07;;;5.35;75.76
82746;BME280;72484;50.004;14.356;2023-12-20T07:44:06;97608.59;;;5.38;75.79
82746;BME280;72484;50.004;14.356;2023-12-20T07:48:05;97613.28;;;5.40;75.60
82746;BME280;72484;50.004;14.356;2023-12-20T07:52:03;97616.05;;;5.41;75.70
82746;BME280;72484;50.004;14.356;2023-12-20T07:56:17;97626.65;;;5.42;75.80
82746;BME280;72484;50.004;14.356;2023-12-20T07:59:38;97628.55;;;5.42;75.74
82746;BME280;72484;50.004;14.356;2023-12-20T08:03:36;97632.59;;;5.43;75.64
82746;BME280;72484;50.004;14.356;2023-12-20T08:07:34;97625.30;;;5.49;75.62
82746;BME280;72484;50.004;14.356;2023-12-20T08:11:34;97621.39;;;5.57;75.48
82746;BME280;72484;50.004;14.356;2023-12-20T08:15:32;97625.23;;;5.63;75.22
82746;BME280;72484;50.004;14.356;2023-12-20T08:19:29;97623.63;;;5.70;74.86
82746;BME280;72484;50.004;14.356;2023-12-20T08:23:27;97630.17;;;5.77;74.72
82746;BME280;72484;50.004;14.356;2023-12-20T08:27:24;97627.96;;;5.76;74.65
82746;BME280;72484;50.004;14.356;2023-12-20T08:31:22;97634.20;;;5.75;74.81
82746;BME280;72484;50.004;14.356;2023-12-20T08:35:20;97639.29;;;5.77;74.83
82746;BME280;72484;50.004;14.356;2023-12-20T08:39:18;97642.60;;;5.77;74.73
82746;BME280;72484;50.004;14.356;2023-12-20T08:43:16;97645.36;;;5.74;74.84
82746;BME280;72484;50.004;14.356;2023-12-20T08:47:13;97636.77;;;5.79;74.70
82746;BME280;72484;50.004;14.356;2023-12-20T08:51:30;97649.30;;;5.82;74.64
82746;BME280;72484;50.004;14.356;2023-12-20T08:54:50;97653.45;;;5.85;74.67
82746;BME280;72484;50.004;14.356;2023-12-20T08:58:49;97645.67;;;5.85;74.28
82746;BME280;72484;50.004;14.356;2023-12-20T09:02:47;97638.39;;;5.85;74.52
82746;BME280;72484;50.004;14.356;2023-12-20T09:06:44;97642.70;;;5.88;74.46
82746;BME280;72484;50.004;14.356;2023-12-20T09:10:41;97646.34;;;5.88;74.34
82746;BME280;72484;50.004;14.356;2023-12-20T09:14:43;97638.92;;;5.82;74.20
82746;BME280;72484;50.004;14.356;2023-12-20T09:18:41;97636.48;;;5.83;74.38
82746;BME280;72484;50.004;14.356;2023-12-20T09:22:39;97644.64;;;5.83;74.09
82746;BME280;72484;50.004;14.356;2023-12-20T09:26:38;97648.67;;;5.84;74.13
82746;BME280;72484;50.004;14.356;2023-12-20T09:30:35;97644.55;;;5.82;74.13
82746;BME280;72484;50.004;14.356;2023-12-20T09:34:39;97646.04;;;5.89;74.23
82746;BME280;72484;50.004;14.356;2023-12-20T09:38:37;97648.15;;;5.94;74.13
82746;BME280;72484;50.004;14.356;2023-12-20T09:42:39;97644.55;;;6.02;74.31
82746;BME280;72484;50.004;14.356;2023-12-20T09:46:44;97648.86;;;6.09;73.83
82746;BME280;72484;50.004;14.356;2023-12-20T09:50:42;97646.70;;;6.04;73.86
82746;BME280;72484;50.004;14.356;2023-12-20T09:54:40;97646.79;;;6.05;73.77
82746;BME280;72484;50.004;14.356;2023-12-20T09:58:39;97659.40;;;6.09;73.74
82746;BME280;72484;50.004;14.356;2023-12-20T10:02:40;97654.65;;;6.21;73.97
82746;BME280;72484;50.004;14.356;2023-12-20T10:06:40;97646.86;;;6.30;73.50
82746;BME280;72484;50.004;14.356;2023-12-20T10:10:38;97650.92;;;6.35;72.97
82746;BME280;72484;50.004;14.356;2023-12-20T10:14:35;97652.70;;;6.41;72.77
82746;BME280;72484;50.004;14.356;2023-12-20T10:18:33;97650.14;;;6.39;72.83
82746;BME280;72484;50.004;14.356;2023-12-20T10:22:31;97647.91;;;6.37;72.77
82746;BME280;72484;50.004;14.356;2023-12-20T10:26:29;97647.59;;;6.33;72.88
82746;BME280;72484;50.004;14.356;2023-12-20T10:30:28;97648.23;;;6.37;72.91
82746;BME280;72484;50.004;14.356;2023-12-20T10:34:25;97643.31;;;6.36;72.50
82746;BME280;72484;50.004;14.356;2023-12-20T10:38:23;97643.22;;;6.33;72.42
82746;BME280;72484;50.004;14.356;2023-12-20T10:42:22;97636.81;;;6.31;72.61
82746;BME280;72484;50.004;14.356;2023-12-20T10:46:20;97626.71;;;6.27;72.39
82746;BME280;72484;50.004;14.356;2023-12-20T10:50:18;97625.11;;;6.24;72.53
82746;BME280;72484;50.004;14.356;2023-12-20T10:54:16;97617.11;;;6.22;72.44
82746;BME280;72484;50.004;14.356;2023-12-20T10:58:17;97613.45;;;6.22;72.73
82746;BME280;72484;50.004;14.356;2023-12-20T11:02:17;97600.71;;;6.28;72.73
82746;BME280;72484;50.004;14.356;2023-12-20T11:06:22;97594.20;;;6.39;72.66
82746;BME280;72484;50.004;14.356;2023-12-20T11:10:24;97587.78;;;6.41;72.51
82746;BME280;72484;50.004;14.356;2023-12-20T11:14:27;97582.40;;;6.43;72.27
82746;BME280;72484;50.004;14.356;2023-12-20T11:18:31;97573.20;;;6.41;72.36
82746;BME280;72484;50.004;14.356;2023-12-20T11:22:31;97563.60;;;6.40;71.95
82746;BME280;72484;50.004;14.356;2023-12-20T11:26:29;97562.09;;;6.39;71.32
82746;BME280;72484;50.004;14.356;2023-12-20T11:30:42;97567.94;;;6.30;71.29
82746;BME280;72484;50.004;14.356;2023-12-20T11:34:42;97570.41;;;6.17;72.75
82746;BME280;72484;50.004;14.356;2023-12-20T11:38:40;97568.27;;;6.03;74.03
82746;BME280;72484;50.004;14.356;2023-12-20T11:42:50;97563.07;;;6.06;74.81
82746;BME280;72484;50.004;14.356;2023-12-20T11:46:48;97561.98;;;6.11;74.90
82746;BME280;72484;50.004;14.356;2023-12-20T11:50:46;97564.05;;;6.13;74.62
82746;BME280;72484;50.004;14.356;2023-12-20T11:54:43;97559.09;;;6.03;74.25
82746;BME280;72484;50.004;14.356;2023-12-20T11:58:41;97540.35;;;5.94;73.77
82746;BME280;72484;50.004;14.356;2023-12-20T12:02:39;97534.33;;;5.93;74.57
82746;BME280;72484;50.004;14.356;2023-12-20T12:06:37;97530.97;;;6.03;74.49
82746;BME280;72484;50.004;14.356;2023-12-20T12:10:35;97530.36;;;6.09;74.39
82746;BME280;72484;50.004;14.356;2023-12-20T12:14:33;97523.42;;;6.15;73.70
82746;BME280;72484;50.004;14.356;2023-12-20T12:18:33;97528.52;;;6.21;73.26
82746;BME280;72484;50.004;14.356;2023-12-20T12:22:31;97526.17;;;6.32;73.71
82746;BME280;72484;50.004;14.356;2023-12-20T12:26:31;97518.20;;;6.39;71.73
82746;BME280;72484;50.004;14.356;2023-12-20T12:30:29;97512.00;;;6.36;71.70
82746;BME280;72484;50.004;14.356;2023-12-20T12:34:28;97505.29;;;6.42;71.44
82746;BME280;72484;50.004;14.356;2023-12-20T12:38:26;97508.05;;;6.41;71.02
82746;BME280;72484;50.004;14.356;2023-12-20T12:42:24;97506.98;;;6.53;71.47
82746;BME280;72484;50.004;14.356;2023-12-20T12:46:24;97507.88;;;6.67;71.16
82746;BME280;72484;50.004;14.356;2023-12-20T12:50:22;97499.02;;;6.76;70.11
82746;BME280;72484;50.004;14.356;2023-12-20T12:54:19;97490.36;;;6.76;69.84
82746;BME280;72484;50.004;14.356;2023-12-20T12:58:17;97485.68;;;6.79;68.01
82746;BME280;72484;50.004;14.356;2023-12-20T13:02:16;97493.84;;;6.72;67.35
82746;BME280;72484;50.004;14.356;2023-12-20T13:06:13;97497.41;;;6.71;66.55
82746;BME280;72484;50.004;14.356;2023-12-20T13:10:11;97500.66;;;6.68;66.34
82746;BME280;72484;50.004;14.356;2023-12-20T13:14:08;97502.00;;;6.70;66.60
82746;BME280;72484;50.004;14.356;2023-12-20T13:18:11;97494.09;;;6.69;66.74
82746;BME280;72484;50.004;14.356;2023-12-20T13:22:08;97489.80;;;6.64;66.53
82746;BME280;72484;50.004;14.356;2023-12-20T13:26:06;97488.44;;;6.56;66.11
82746;BME280;72484;50.004;14.356;2023-12-20T13:30:04;97486.98;;;6.47;65.77
82746;BME280;72484;50.004;14.356;2023-12-20T13:34:05;97491.08;;;6.36;65.93
82746;BME280;72484;50.004;14.356;2023-12-20T13:38:02;97484.34;;;6.32;66.18
82746;BME280;72484;50.004;14.356;2023-12-20T13:42:00;97490.13;;;6.40;66.59
82746;BME280;72484;50.004;14.356;2023-12-20T13:46:04;97488.01;;;6.45;66.52
82746;BME280;72484;50.004;14.356;2023-12-20T13:49:36;97485.96;;;6.47;66.26
82746;BME280;72484;50.004;14.356;2023-12-20T13:53:34;97481.92;;;6.51;65.87
82746;BME280;72484;50.004;14.356;2023-12-20T13:57:31;97481.02;;;6.45;65.21
82746;BME280;72484;50.004;14.356;2023-12-20T14:01:29;97475.23;;;6.41;64.95
82746;BME280;72484;50.004;14.356;2023-12-20T14:05:26;97479.98;;;6.34;64.75
82746;BME280;72484;50.004;14.356;2023-12-20T14:09:24;97481.14;;;6.27;64.14
82746;BME280;72484;50.004;14.356;2023-12-20T14:13:22;97484.61;;;6.19;64.50
82746;BME280;72484;50.004;14.356;2023-12-20T14:17:19;97493.79;;;6.13;64.08
82746;BME280;72484;50.004;14.356;2023-12-20T14:21:17;97494.33;;;6.09;64.53
82746;BME280;72484;50.004;14.356;2023-12-20T14:25:15;97496.77;;;6.06;64.33
82746;BME280;72484;50.004;14.356;2023-12-20T14:29:16;97482.11;;;6.09;64.21
82746;BME280;72484;50.004;14.356;2023-12-20T14:33:14;97487.72;;;6.02;64.49
82746;BME280;72484;50.004;14.356;2023-12-20T14:37:11;97486.53;;;6.01;64.59
82746;BME280;72484;50.004;14.356;2023-12-20T14:41:09;97484.73;;;6.04;64.37
82746;BME280;72484;50.004;14.356;2023-12-20T14:45:09;97481.86;;;6.02;64.47
82746;BME280;72484;50.004;14.356;2023-12-20T14:49:06;97479.31;;;5.99;64.44
82746;BME280;72484;50.004;14.356;2023-12-20T14:53:04;97483.36;;;5.99;64.21
82746;BME280;72484;50.004;14.356;2023-12-20T14:57:02;97477.83;;;5.88;64.36
82746;BME280;72484;50.004;14.356;2023-12-20T15:01:03;97482.45;;;5.78;64.71
82746;BME280;72484;50.004;14.356;2023-12-20T15:05:03;97482.95;;;5.70;64.77
82746;BME280;72484;50.004;14.356;2023-12-20T15:09:01;97479.55;;;5.67;64.92
82746;BME280;72484;50.004;14.356;2023-12-20T15:13:00;97475.88;;;5.62;65.37
82746;BME280;72484;50.004;14.356;2023-12-20T15:16:59;97465.55;;;5.55;65.59
82746;BME280;72484;50.004;14.356;2023-12-20T15:20:56;97453.65;;;5.50;65.89
82746;BME280;72484;50.004;14.356;2023-12-20T15:24:54;97444.93;;;5.46;66.12
82746;BME280;72484;50.004;14.356;2023-12-20T15:28:52;97440.98;;;5.38;66.31
82746;BME280;72484;50.004;14.356;2023-12-20T15:32:50;97426.67;;;5.38;66.52
82746;BME280;72484;50.004;14.356;2023-12-20T15:36:47;97433.05;;;5.30;66.73
82746;BME280;72484;50.004;14.356;2023-12-20T15:40:45;97438.23;;;5.24;66.86
82746;BME280;72484;50.004;14.356;2023-12-20T15:44:42;97436.07;;;5.18;67.16
82746;BME280;72484;50.004;14.356;2023-12-20T15:48:40;97431.06;;;5.17;67.07
82746;BME280;72484;50.004;14.356;2023-12-20T15:52:37;97435.24;;;5.16;66.82
82746;BME280;72484;50.004;14.356;2023-12-20T15:56:35;97435.63;;;5.13;67.20
82746;BME280;72484;50.004;14.356;2023-12-20T16:00:33;97442.83;;;5.12;67.28
82746;BME280;72484;50.004;14.356;2023-12-20T16:04:34;97448.01;;;5.07;67.29
82746;BME280;72484;50.004;14.356;2023-12-20T16:08:32;97449.96;;;5.02;67.81
82746;BME280;72484;50.004;14.356;2023-12-20T16:12:29;97446.40;;;5.03;67.35
82746;BME280;72484;50.004;14.356;2023-12-20T16:16:27;97455.70;;;4.99;67.38
82746;BME280;72484;50.004;14.356;2023-12-20T16:20:25;97463.48;;;5.03;67.34
82746;BME280;72484;50.004;14.356;2023-12-20T16:24:22;97469.83;;;5.04;67.25
82746;BME280;72484;50.004;14.356;2023-12-20T16:28:20;97471.90;;;5.07;67.30
82746;BME280;72484;50.004;14.356;2023-12-20T16:32:17;97473.11;;;5.12;67.06
82746;BME280;72484;50.004;14.356;2023-12-20T16:36:15;97475.40;;;5.11;67.44
82746;BME280;72484;50.004;14.356;2023-12-20T16:40:13;97467.89;;;5.12;67.54
82746;BME280;72484;50.004;14.356;2023-12-20T16:44:10;97472.33;;;5.14;67.57
82746;BME280;72484;50.004;14.356;2023-12-20T16:48:08;97478.16;;;5.11;67.78
82746;BME280;72484;50.004;14.356;2023-12-20T16:52:07;97481.80;;;5.12;67.70
82746;BME280;72484;50.004;14.356;2023-12-20T16:56:06;97489.49;;;5.14;67.69
82746;BME280;72484;50.004;14.356;2023-12-20T17:00:05;97489.02;;;5.13;67.77
82746;BME280;72484;50.004;14.356;2023-12-20T17:04:03;97491.89;;;5.15;67.70
82746;BME280;72484;50.004;14.356;2023-12-20T17:08:01;97488.08;;;5.14;67.82
82746;BME280;72484;50.004;14.356;2023-12-20T17:11:58;97483.11;;;5.14;68.01
82746;BME280;72484;50.004;14.356;2023-12-20T17:15:56;97483.02;;;5.16;67.98
82746;BME280;72484;50.004;14.356;2023-12-20T17:19:53;97481.42;;;5.11;67.88
82746;BME280;72484;50.004;14.356;2023-12-20T17:23:51;97469.95;;;5.13;68.12
82746;BME280;72484;50.004;14.356;2023-12-20T17:27:48;97457.64;;;5.12;68.36
82746;BME280;72484;50.004;14.356;2023-12-20T17:31:49;97459.19;;;5.11;68.38
82746;BME280;72484;50.004;14.356;2023-12-20T17:35:47;97463.30;;;5.10;68.53
82746;BME280;72484;50.004;14.356;2023-12-20T17:39:45;97463.51;;;5.06;68.57
82746;BME280;72484;50.004;14.356;2023-12-20T17:43:43;97466.63;;;5.02;68.61
82746;BME280;72484;50.004;14.356;2023-12-20T17:47:41;97458.79;;;4.99;68.78
82746;BME280;72484;50.004;14.356;2023-12-20T17:51:40;97466.84;;;4.98;68.98
82746;BME280;72484;50.004;14.356;2023-12-20T17:55:37;97474.90;;;4.96;69.27
82746;BME280;72484;50.004;14.356;2023-12-20T17:59:35;97481.19;;;4.92;69.23
82746;BME280;72484;50.004;14.356;2023-12-20T18:03:34;97486.20;;;4.87;69.51
82746;BME280;72484;50.004;14.356;2023-12-20T18:07:32;97481.70;;;4.85;69.57
82746;BME280;72484;50.004;14.356;2023-12-20T18:11:29;97482.02;;;4.86;69.65
82746;BME280;72484;50.004;14.356;2023-12-20T18:15:26;97486.59;;;4.86;69.77
82746;BME280;72484;50.004;14.356;2023-12-20T18:19:24;97486.01;;;4.92;69.87
82746;BME280;72484;50.004;14.356;2023-12-20T18:23:22;97486.65;;;4.93;69.81
82746;BME280;72484;50.004;14.356;2023-12-20T18:27:19;97486.53;;;4.97;69.56
82746;BME280;72484;50.004;14.356;2023-12-20T18:31:17;97486.69;;;4.99;69.64
82746;BME280;72484;50.004;14.356;2023-12-20T18:35:15;97483.09;;;5.03;69.50
82746;BME280;72484;50.004;14.356;2023-12-20T18:39:12;97481.62;;;5.07;69.30
82746;BME280;72484;50.004;14.356;2023-12-20T18:43:09;97477.42;;;5.06;69.48
82746;BME280;72484;50.004;14.356;2023-12-20T18:47:07;97483.75;;;5.06;69.60
82746;BME280;72484;50.004;14.356;2023-12-20T18:51:05;97486.79;;;5.10;69.44
82746;BME280;72484;50.004;14.356;2023-12-20T18:55:03;97495.64;;;5.12;69.25
82746;BME280;72484;50.004;14.356;2023-12-20T18:59:01;97493.45;;;5.14;69.32
82746;BME280;72484;50.004;14.356;2023-12-20T19:02:58;97494.77;;;5.19;69.20
82746;BME280;72484;50.004;14.356;2023-12-20T19:06:57;97499.45;;;5.24;69.11
82746;BME280;72484;50.004;14.356;2023-12-20T19:10:55;97495.39;;;5.30;68.91
82746;BME280;72484;50.004;14.356;2023-12-20T19:14:53;97495.64;;;5.32;68.95
82746;BME280;72484;50.004;14.356;2023-12-20T19:18:50;97490.50;;;5.34;69.11
82746;BME280;72484;50.004;14.356;2023-12-20T19:22:48;97489.40;;;5.34;68.76
82746;BME280;72484;50.004;14.356;2023-12-20T19:26:45;97493.61;;;5.35;68.86
82746;BME280;72484;50.004;14.356;2023-12-20T19:30:43;97493.84;;;5.37;68.60
82746;BME280;72484;50.004;14.356;2023-12-20T19:34:41;97490.21;;;5.38;68.63
82746;BME280;72484;50.004;14.356;2023-12-20T19:38:39;97490.16;;;5.42;68.88
82746;BME280;72484;50.004;14.356;2023-12-20T19:42:40;97486.79;;;5.47;68.95
82746;BME280;72484;50.004;14.356;2023-12-20T19:46:38;97485.27;;;5.45;68.95
82746;BME280;72484;50.004;14.356;2023-12-20T19:50:35;97486.63;;;5.47;69.41
82746;BME280;72484;50.004;14.356;2023-12-20T19:54:34;97488.69;;;5.47;69.46
82746;BME280;72484;50.004;14.356;2023-12-20T19:58:31;97484.40;;;5.46;69.95
82746;BME280;72484;50.004;14.356;2023-12-20T20:02:29;97488.00;;;5.49;70.01
82746;BME280;72484;50.004;14.356;2023-12-20T20:06:27;97488.10;;;5.56;70.07
82746;BME280;72484;50.004;14.356;2023-12-20T20:10:25;97479.81;;;5.57;70.19
82746;BME280;72484;50.004;14.356;2023-12-20T20:14:22;97474.35;;;5.58;70.48
82746;BME280;72484;50.004;14.356;2023-12-20T20:18:23;97464.60;;;5.57;70.50
82746;BME280;72484;50.004;14.356;2023-12-20T20:22:39;97458.96;;;5.52;70.24
82746;BME280;72484;50.004;14.356;2023-12-20T20:26:38;97451.88;;;5.47;70.48
82746;BME280;72484;50.004;14.356;2023-12-20T20:30:35;97448.16;;;5.45;70.95
82746;BME280;72484;50.004;14.356;2023-12-20T20:34:33;97447.78;;;5.47;70.72
82746;BME280;72484;50.004;14.356;2023-12-20T20:38:30;97445.16;;;5.44;70.87
82746;BME280;72484;50.004;14.356;2023-12-20T20:42:28;97446.20;;;5.47;70.59
82746;BME280;72484;50.004;14.356;2023-12-20T20:46:26;97440.83;;;5.48;70.37
82746;BME280;72484;50.004;14.356;2023-12-20T20:50:25;97443.41;;;5.45;70.56
82746;BME280;72484;50.004;14.356;2023-12-20T20:54:23;97449.81;;;5.42;70.70
82746;BME280;72484;50.004;14.356;2023-12-20T20:58:21;97444.98;;;5.41;71.02